Stations météo

réclame
Mon MeteoGroup
Serralta di S. Vito, Italie (16364): Température de l'air & dewpoint: 12.10.2017 07:00:00 - 18.10.2017 07:00:00 (CEST)Serralta di S. Vito, Italie (16364): Vitesse du vent: 12.10.2017 07:00:00 - 18.10.2017 07:00:00 (CEST)Serralta di S. Vito, Italie (16364): Direction du vent: 12.10.2017 07:00:00 - 18.10.2017 07:00:00 (CEST)Serralta di S. Vito, Italie (16364): Quantités de précipitations: 12.10.2017 07:00:00 - 18.10.2017 07:00:00 (CEST)
Date & Time tt [°C] td [°C] ff [km/h] ff [knt] dd rr [mm]
18.10.2017 07:00:00 - - - - - -
18.10.2017 06:00:00 9,9 6,6 0 0 N -
18.10.2017 05:00:00 10,3 6,4 0 0 N -
18.10.2017 04:00:00 10,2 6,5 9 5 WSW -
18.10.2017 03:00:00 11,0 5,5 8 4 W -
18.10.2017 02:00:00 10,8 5,5 5 3 WSW -
18.10.2017 01:00:00 10,7 6,0 8 4 W 0,0
18.10.2017 00:00:00 10,7 7,2 5 3 W -
17.10.2017 23:00:00 10,8 7,8 9 5 W -
17.10.2017 22:00:00 11,4 8,0 8 4 SW -
17.10.2017 21:00:00 11,4 8,4 8 4 W -
17.10.2017 20:00:00 11,7 8,5 9 5 W -
17.10.2017 19:00:00 12,1 8,5 0 0 N 0,0
17.10.2017 18:00:00 14,1 10,5 0 0 N -
17.10.2017 17:00:00 15,7 10,8 0 0 N -
17.10.2017 16:00:00 17,1 11,5 0 0 N -
17.10.2017 15:00:00 18,4 12,3 0 0 N -
17.10.2017 14:00:00 19,7 8,9 5 3 SE -
17.10.2017 13:00:00 19,4 8,3 0 0 N 0,0
17.10.2017 12:00:00 19,3 11,0 0 0 N -
17.10.2017 11:00:00 17,4 9,0 11 6 E -
17.10.2017 10:00:00 15,9 8,3 9 5 E -
17.10.2017 09:00:00 14,6 7,6 11 6 ENE -
17.10.2017 08:00:00 13,4 5,5 13 7 E -
17.10.2017 07:00:00 12,6 5,4 15 8 E 0,0
17.10.2017 06:00:00 12,6 6,1 15 8 E -
17.10.2017 05:00:00 12,0 7,1 15 8 E -
17.10.2017 04:00:00 13,2 6,7 11 6 E -
17.10.2017 03:00:00 12,8 7,6 9 5 E -
17.10.2017 02:00:00 12,9 8,7 15 8 E -
17.10.2017 01:00:00 13,8 8,4 9 5 E 0,0
17.10.2017 00:00:00 14,4 8,1 0 0 N -
16.10.2017 23:00:00 15,2 9,3 0 0 N -
16.10.2017 22:00:00 14,6 10,0 0 0 N -
16.10.2017 21:00:00 13,5 10,3 0 0 N -
16.10.2017 20:00:00 12,7 9,7 0 0 N -
16.10.2017 19:00:00 13,1 9,7 0 0 N 0,0
16.10.2017 18:00:00 14,5 10,9 0 0 N -
16.10.2017 17:00:00 16,2 11,5 0 0 N -
16.10.2017 16:00:00 17,7 13,9 0 0 N -
16.10.2017 15:00:00 17,7 12,9 0 0 N -
16.10.2017 14:00:00 19,6 15,2 0 0 N -
16.10.2017 13:00:00 19,3 14,3 0 0 N 0,0
16.10.2017 12:00:00 18,7 12,2 0 0 N -
16.10.2017 11:00:00 18,1 11,6 0 0 N -
16.10.2017 10:00:00 16,0 10,5 0 0 N -
16.10.2017 09:00:00 13,2 9,8 0 0 N -
16.10.2017 08:00:00 11,2 7,5 0 0 N -
16.10.2017 07:00:00 10,7 6,4 4 2 SSW 0,0
16.10.2017 06:00:00 11,9 8,3 8 4 SSW -
16.10.2017 05:00:00 10,9 8,3 4 2 SSW -
16.10.2017 04:00:00 10,2 7,8 0 0 N -
16.10.2017 03:00:00 9,7 7,4 0 0 N -
16.10.2017 02:00:00 10,5 8,2 0 0 N -
16.10.2017 01:00:00 10,8 8,9 0 0 N 0,0
16.10.2017 00:00:00 11,2 9,3 0 0 N -
15.10.2017 23:00:00 11,2 9,3 4 2 W -
15.10.2017 22:00:00 11,7 9,4 0 0 N -
15.10.2017 21:00:00 11,7 9,8 8 4 W -
15.10.2017 20:00:00 12,4 10,4 13 7 W -
15.10.2017 19:00:00 13,2 10,9 5 3 W 0,0
15.10.2017 18:00:00 13,8 11,3 13 7 W -
15.10.2017 17:00:00 14,6 11,9 5 3 SW -
15.10.2017 16:00:00 15,6 12,5 0 0 N -
15.10.2017 15:00:00 16,7 12,8 9 5 SW -
15.10.2017 14:00:00 17,7 14,5 2 1 W -
15.10.2017 13:00:00 17,5 15,2 11 6 SW 0,0
15.10.2017 12:00:00 16,1 13,7 15 8 W -
15.10.2017 11:00:00 14,8 12,5 9 5 SW -
15.10.2017 10:00:00 13,0 10,9 9 5 WSW -
15.10.2017 09:00:00 12,4 10,3 13 7 SW -
15.10.2017 08:00:00 11,7 9,6 15 8 WSW -
15.10.2017 07:00:00 11,3 9,2 16 9 W 0,0
15.10.2017 06:00:00 11,5 9,4 13 7 W -
15.10.2017 05:00:00 11,4 9,3 15 8 WNW -
15.10.2017 04:00:00 11,3 9,2 13 7 WSW -
15.10.2017 03:00:00 11,4 9,3 16 9 W -
15.10.2017 02:00:00 11,7 9,6 18 10 W -
15.10.2017 01:00:00 11,4 9,3 13 7 WSW 0,0
15.10.2017 00:00:00 11,2 9,1 13 7 SW -
14.10.2017 23:00:00 11,3 9,5 9 5 WNW -
14.10.2017 22:00:00 11,7 9,6 11 6 W -
14.10.2017 21:00:00 12,1 10,0 8 4 W -
14.10.2017 20:00:00 12,2 10,2 9 5 W -
14.10.2017 19:00:00 12,6 10,6 15 8 WSW 0,0
14.10.2017 18:00:00 13,0 10,7 4 2 SW -
14.10.2017 17:00:00 14,0 12,0 9 5 W -
14.10.2017 16:00:00 14,1 11,6 11 6 WNW -
14.10.2017 15:00:00 14,4 11,9 16 9 W -
14.10.2017 14:00:00 14,9 12,2 13 7 W -
14.10.2017 13:00:00 16,1 13,7 15 8 W 0,0
14.10.2017 12:00:00 15,3 12,9 0 0 N -
14.10.2017 11:00:00 13,3 11,2 4 2 WSW -
14.10.2017 10:00:00 12,5 10,4 8 4 W -
14.10.2017 09:00:00 11,9 9,8 15 8 WNW -
14.10.2017 08:00:00 11,1 9,0 15 8 WNW -
14.10.2017 07:00:00 11,1 9,0 26 14 W 0,0
14.10.2017 06:00:00 11,4 9,3 16 9 WSW -
14.10.2017 05:00:00 11,2 9,1 13 7 WNW -
14.10.2017 04:00:00 11,3 9,2 18 10 WSW -
14.10.2017 03:00:00 11,2 9,1 21 11 W -
14.10.2017 02:00:00 11,3 9,2 11 6 WNW -
14.10.2017 01:00:00 11,4 9,3 11 6 WSW 0,0
14.10.2017 00:00:00 11,6 9,5 11 6 WSW -
13.10.2017 23:00:00 11,3 9,2 13 7 WSW -
13.10.2017 22:00:00 11,7 9,6 13 7 W -
13.10.2017 21:00:00 12,1 10,0 15 8 WNW -
13.10.2017 20:00:00 12,0 9,9 9 5 W -
13.10.2017 19:00:00 12,0 10,1 15 8 WSW 0,0
13.10.2017 18:00:00 12,4 10,4 18 10 WNW -
13.10.2017 17:00:00 13,2 10,9 11 6 WSW -
13.10.2017 16:00:00 13,2 10,9 16 9 NW -
13.10.2017 15:00:00 13,9 11,9 13 7 W -
13.10.2017 14:00:00 15,1 12,8 13 7 W -
13.10.2017 13:00:00 14,9 12,6 11 6 WSW 0,0
13.10.2017 12:00:00 14,6 12,3 11 6 W -
13.10.2017 11:00:00 13,2 11,1 11 6 W -
13.10.2017 10:00:00 12,9 10,8 9 5 WSW -
13.10.2017 09:00:00 12,2 10,1 13 7 W -
13.10.2017 08:00:00 11,8 9,7 15 8 WNW -
13.10.2017 07:00:00 11,7 9,6 13 7 W 0,0
13.10.2017 06:00:00 11,7 9,6 13 7 WSW -
13.10.2017 05:00:00 11,7 9,6 16 9 W -
13.10.2017 04:00:00 11,9 9,8 11 6 W -
13.10.2017 03:00:00 11,8 9,7 9 5 WSW -
13.10.2017 02:00:00 11,2 9,1 21 11 WNW -
13.10.2017 01:00:00 11,8 9,7 22 12 W 0,0
13.10.2017 00:00:00 12,0 9,9 15 8 NW -
12.10.2017 23:00:00 12,1 10,0 15 8 SW -
12.10.2017 22:00:00 12,2 10,1 15 8 W -
12.10.2017 21:00:00 12,2 10,1 16 9 W -
12.10.2017 20:00:00 12,5 10,4 13 7 W -
12.10.2017 19:00:00 12,5 10,4 15 8 WSW 0,0
12.10.2017 18:00:00 12,6 10,6 22 12 W -
12.10.2017 17:00:00 12,8 10,3 9 5 W -
12.10.2017 16:00:00 13,5 10,8 9 5 WSW -
12.10.2017 15:00:00 13,5 10,6 9 5 WNW -
12.10.2017 14:00:00 15,2 12,1 9 5 WNW -
12.10.2017 13:00:00 15,4 12,3 13 7 W 0,0
12.10.2017 12:00:00 14,6 12,1 13 7 WNW -
12.10.2017 11:00:00 14,1 11,9 0 0 N -
12.10.2017 10:00:00 12,8 10,7 0 0 N -
12.10.2017 09:00:00 11,2 9,1 0 0 N -
12.10.2017 08:00:00 10,2 8,3 8 4 W -
12.10.2017 07:00:00 10,4 8,5 0 0 N 0,0

tt = Température de l'air
td = dewpoint
ff = Vitesse du vent
dd = Direction du vent
rr = Quantités de précipitations

stations d'obs. à proximité